createdAt,value
2023-01-31T00:01:40.169Z,16.17
2023-01-31T00:04:11.359Z,15.55
2023-01-31T00:06:41.216Z,9.80
2023-01-31T00:09:12.503Z,10.45
2023-01-31T00:11:41.100Z,15.27
2023-01-31T00:14:11.037Z,19.27
2023-01-31T00:16:39.280Z,16.63
2023-01-31T00:19:07.699Z,20.38
2023-01-31T00:21:36.052Z,15.63
2023-01-31T00:24:05.645Z,11.85
2023-01-31T00:26:36.142Z,16.00
2023-01-31T00:29:05.943Z,12.07
2023-01-31T00:31:36.136Z,18.15
2023-01-31T00:34:04.603Z,15.90
2023-01-31T00:36:34.825Z,20.10
2023-01-31T00:39:05.035Z,13.40
2023-01-31T00:41:36.522Z,14.90
2023-01-31T00:44:06.735Z,17.80
2023-01-31T00:46:35.842Z,16.90
2023-01-31T00:49:05.004Z,16.52
2023-01-31T00:51:32.963Z,17.92
2023-01-31T00:54:00.898Z,12.40
2023-01-31T00:56:29.150Z,11.20
2023-01-31T00:58:58.452Z,13.75
2023-01-31T01:01:28.433Z,13.90
2023-01-31T01:03:57.592Z,12.88
2023-01-31T01:06:26.134Z,15.50
2023-01-31T01:08:55.004Z,12.75
2023-01-31T01:11:24.953Z,19.08
2023-01-31T01:13:53.656Z,15.90
2023-01-31T01:16:25.404Z,16.67
2023-01-31T01:18:55.073Z,16.58
2023-01-31T01:21:24.437Z,18.77
2023-01-31T01:23:52.796Z,18.40
2023-01-31T01:26:23.104Z,17.17
2023-01-31T01:28:52.304Z,21.92
2023-01-31T01:31:30.374Z,14.85
2023-01-31T01:34:03.485Z,15.00
2023-01-31T01:36:34.644Z,17.20
2023-01-31T01:39:03.078Z,16.60
2023-01-31T01:41:33.456Z,19.17
2023-01-31T01:44:02.879Z,18.08
2023-01-31T01:46:33.858Z,16.00
2023-01-31T01:49:12.234Z,23.35
2023-01-31T01:51:41.607Z,27.70
2023-01-31T01:54:14.380Z,10.88
2023-01-31T01:56:44.602Z,15.95
2023-01-31T01:59:18.517Z,15.98
2023-01-31T02:01:48.731Z,16.92
2023-01-31T02:04:22.289Z,20.05
2023-01-31T02:06:51.103Z,13.35
2023-01-31T02:09:27.019Z,16.63
2023-01-31T02:11:55.796Z,16.08
2023-01-31T02:14:24.679Z,14.27
2023-01-31T02:16:52.854Z,16.10
2023-01-31T02:19:31.053Z,14.32
2023-01-31T02:22:11.117Z,13.55
2023-01-31T02:25:07.957Z,12.65
2023-01-31T02:28:08.531Z,17.88
2023-01-31T02:31:00.592Z,11.07
2023-01-31T02:33:36.811Z,12.05
2023-01-31T02:36:12.419Z,12.15
2023-01-31T02:38:56.187Z,16.63
2023-01-31T02:41:31.269Z,14.80
2023-01-31T02:44:25.858Z,18.00
2023-01-31T02:46:59.824Z,17.50
2023-01-31T02:49:36.991Z,19.90
2023-01-31T02:52:23.914Z,15.95
2023-01-31T02:55:24.237Z,20.35
2023-01-31T02:57:54.663Z,20.88
2023-01-31T03:00:25.034Z,22.25
2023-01-31T03:02:53.272Z,14.38
2023-01-31T03:05:26.157Z,29.95
2023-01-31T03:07:57.269Z,22.60
2023-01-31T03:10:56.222Z,16.02
2023-01-31T03:13:36.701Z,20.77
2023-01-31T03:16:32.251Z,15.68
2023-01-31T03:19:13.636Z,18.23
2023-01-31T03:21:48.232Z,21.08
2023-01-31T03:24:19.214Z,15.55
2023-01-31T03:26:48.703Z,17.40
2023-01-31T03:29:18.601Z,15.25
2023-01-31T03:31:51.713Z,18.60
2023-01-31T03:34:20.925Z,27.40
2023-01-31T03:36:56.723Z,20.88
2023-01-31T03:39:41.145Z,18.83
2023-01-31T03:42:17.323Z,15.30
2023-01-31T03:44:51.980Z,18.52
2023-01-31T03:47:24.601Z,18.48
2023-01-31T03:49:55.447Z,20.27
2023-01-31T03:52:30.622Z,16.52
2023-01-31T03:55:03.815Z,19.77
2023-01-31T03:57:36.033Z,20.23
2023-01-31T04:00:06.581Z,14.27
2023-01-31T04:02:43.725Z,16.85
2023-01-31T04:05:17.928Z,17.02
2023-01-31T04:07:49.501Z,22.13
2023-01-31T04:10:24.276Z,20.05
2023-01-31T04:12:52.201Z,14.10
2023-01-31T04:15:20.735Z,17.98
2023-01-31T04:17:48.807Z,13.88
2023-01-31T04:20:17.072Z,16.85
2023-01-31T04:22:44.981Z,12.35
2023-01-31T04:25:14.328Z,28.05
2023-01-31T04:27:42.356Z,23.10
2023-01-31T04:30:11.934Z,14.27
2023-01-31T04:32:39.888Z,18.77
2023-01-31T04:35:08.302Z,20.67
2023-01-31T04:37:36.685Z,16.02
2023-01-31T04:40:05.868Z,11.27
2023-01-31T04:42:35.148Z,18.52
2023-01-31T04:45:03.925Z,13.98
2023-01-31T04:47:31.912Z,11.25
2023-01-31T04:49:59.857Z,14.40
2023-01-31T04:52:27.750Z,21.00
2023-01-31T04:54:55.616Z,18.83
2023-01-31T04:57:23.686Z,15.23
2023-01-31T04:59:53.115Z,16.90
2023-01-31T05:02:21.083Z,19.42
2023-01-31T05:04:48.987Z,16.73
2023-01-31T05:07:16.888Z,13.18
2023-01-31T05:09:45.215Z,16.20
2023-01-31T05:12:13.111Z,11.30
2023-01-31T05:14:41.080Z,15.13
2023-01-31T05:17:10.867Z,10.57
2023-01-31T05:19:38.757Z,14.80
2023-01-31T05:22:06.697Z,22.02
2023-01-31T05:24:35.080Z,21.40
2023-01-31T05:27:03.819Z,18.00
2023-01-31T05:29:33.646Z,13.70
2023-01-31T05:32:03.628Z,17.42
2023-01-31T05:34:33.666Z,19.90
2023-01-31T05:37:02.535Z,21.88
2023-01-31T05:39:31.260Z,16.48
2023-01-31T05:41:59.715Z,11.98
2023-01-31T05:44:27.697Z,13.57
2023-01-31T05:46:55.602Z,13.60
2023-01-31T05:49:23.499Z,12.90
2023-01-31T05:51:52.758Z,16.08
2023-01-31T05:54:20.704Z,16.98
2023-01-31T05:56:48.597Z,12.27
2023-01-31T05:59:16.494Z,12.15
2023-01-31T06:01:44.447Z,15.30
2023-01-31T06:04:12.532Z,11.13
2023-01-31T06:06:40.498Z,15.90
2023-01-31T06:09:11.690Z,11.63
2023-01-31T06:11:39.735Z,15.27
2023-01-31T06:14:07.703Z,20.52
2023-01-31T06:16:35.731Z,13.07
2023-01-31T06:19:03.935Z,17.48
2023-01-31T06:21:32.056Z,10.85
2023-01-31T06:24:00.100Z,17.30
2023-01-31T06:26:29.660Z,16.75
2023-01-31T06:28:57.890Z,17.25
2023-01-31T06:31:25.867Z,12.82
2023-01-31T06:33:53.828Z,12.15
2023-01-31T06:36:21.858Z,20.73
2023-01-31T06:38:51.009Z,12.82
2023-01-31T06:41:19.567Z,11.02
2023-01-31T06:43:48.908Z,12.45
2023-01-31T06:46:16.816Z,11.52
2023-01-31T06:48:44.839Z,15.43
2023-01-31T06:51:12.706Z,12.07
2023-01-31T06:53:40.667Z,23.95
2023-01-31T06:56:09.197Z,17.27
2023-01-31T06:58:37.355Z,18.20
2023-01-31T07:01:07.945Z,13.75
2023-01-31T07:03:35.890Z,18.73
2023-01-31T07:06:04.169Z,14.40
2023-01-31T07:08:35.337Z,17.27
2023-01-31T07:11:04.385Z,16.33
2023-01-31T07:13:32.516Z,12.95
2023-01-31T07:16:00.689Z,13.75
2023-01-31T07:18:30.232Z,15.18
2023-01-31T07:20:58.150Z,12.57
2023-01-31T07:23:26.215Z,9.13
2023-01-31T07:25:54.101Z,11.95
2023-01-31T07:28:22.030Z,18.33
2023-01-31T07:30:51.742Z,18.75
2023-01-31T07:33:20.524Z,19.75
2023-01-31T07:35:49.812Z,14.27
2023-01-31T07:38:17.724Z,17.65
2023-01-31T07:40:45.591Z,16.88
2023-01-31T07:43:13.525Z,16.90
2023-01-31T07:45:42.795Z,16.30
2023-01-31T07:48:10.863Z,13.50
2023-01-31T07:50:38.892Z,19.90
2023-01-31T07:53:08.157Z,12.27
2023-01-31T07:55:36.074Z,18.77
2023-01-31T07:58:03.988Z,18.15
2023-01-31T08:00:49.573Z,17.25
2023-01-31T08:03:34.898Z,16.15
2023-01-31T08:06:04.797Z,15.10
2023-01-31T08:08:34.688Z,16.92
2023-01-31T08:11:04.998Z,19.42
2023-01-31T08:13:33.770Z,17.42
2023-01-31T08:16:02.035Z,24.35
2023-01-31T08:18:30.531Z,12.82
2023-01-31T08:20:58.901Z,23.25
2023-01-31T08:23:28.265Z,22.35
2023-01-31T08:26:02.832Z,26.70
2023-01-31T08:28:31.855Z,34.65
2023-01-31T08:31:08.754Z,13.93
2023-01-31T08:33:38.120Z,18.67
2023-01-31T08:36:13.862Z,14.98
2023-01-31T08:38:42.162Z,15.98
2023-01-31T08:41:11.859Z,20.83
2023-01-31T08:43:54.223Z,18.02
2023-01-31T08:46:23.888Z,16.27
2023-01-31T08:48:52.093Z,13.50
2023-01-31T08:51:20.228Z,15.93
2023-01-31T08:53:48.145Z,22.42
2023-01-31T08:56:18.107Z,15.75
2023-01-31T08:58:46.529Z,14.93
2023-01-31T09:01:16.240Z,22.55
2023-01-31T09:03:45.589Z,22.10
2023-01-31T09:06:16.359Z,21.30
2023-01-31T09:08:44.491Z,16.95
2023-01-31T09:11:17.031Z,15.75
2023-01-31T09:13:47.636Z,18.98
2023-01-31T09:16:16.027Z,16.90
2023-01-31T09:18:44.045Z,14.70
2023-01-31T09:21:14.899Z,18.30
2023-01-31T09:23:43.620Z,19.33
2023-01-31T09:26:12.940Z,17.67
2023-01-31T09:28:42.837Z,15.85
2023-01-31T09:31:14.325Z,13.15
2023-01-31T09:33:42.748Z,17.50
2023-01-31T09:36:12.244Z,10.93
2023-01-31T09:38:40.278Z,17.27
2023-01-31T09:41:17.232Z,10.02
2023-01-31T09:43:50.368Z,15.82
2023-01-31T09:46:23.957Z,12.63
2023-01-31T09:48:54.937Z,18.20
2023-01-31T09:51:24.907Z,14.90
2023-01-31T09:53:53.079Z,13.90
2023-01-31T09:56:33.081Z,17.80
2023-01-31T09:59:12.881Z,12.38
2023-01-31T10:01:48.741Z,16.65
2023-01-31T10:04:38.470Z,15.40
2023-01-31T10:07:12.722Z,17.30
2023-01-31T10:09:45.752Z,16.35
2023-01-31T10:12:17.247Z,16.38
2023-01-31T10:14:50.351Z,20.70
2023-01-31T10:17:23.983Z,17.52
2023-01-31T10:19:55.573Z,11.55
2023-01-31T10:22:33.083Z,14.77
2023-01-31T10:25:05.580Z,16.42
2023-01-31T10:27:43.059Z,21.45
2023-01-31T10:30:18.836Z,16.65
2023-01-31T10:32:52.424Z,15.07
2023-01-31T10:35:25.173Z,17.85
2023-01-31T10:37:58.634Z,20.73
2023-01-31T10:40:33.687Z,18.23
2023-01-31T10:43:11.727Z,14.57
2023-01-31T10:45:39.706Z,12.98
2023-01-31T10:48:16.652Z,15.63
2023-01-31T10:50:57.877Z,15.20
2023-01-31T10:53:53.007Z,17.98
2023-01-31T10:56:27.777Z,18.73
2023-01-31T10:58:57.736Z,20.02
2023-01-31T11:01:25.934Z,13.10
2023-01-31T11:03:57.625Z,17.17
2023-01-31T11:06:26.310Z,19.10
2023-01-31T11:08:57.624Z,24.15
2023-01-31T11:11:27.475Z,16.40
2023-01-31T11:14:01.375Z,22.27
2023-01-31T11:16:31.988Z,19.13
2023-01-31T11:19:04.614Z,19.50
2023-01-31T11:21:35.454Z,17.55
2023-01-31T11:24:05.790Z,21.98
2023-01-31T11:26:37.714Z,24.48
2023-01-31T11:29:16.786Z,16.23
2023-01-31T11:31:47.595Z,25.00
2023-01-31T11:34:29.781Z,31.67
2023-01-31T11:37:06.868Z,20.23
2023-01-31T11:39:38.207Z,22.00
2023-01-31T11:42:08.269Z,17.88
2023-01-31T11:44:36.269Z,16.92
2023-01-31T11:47:07.933Z,19.13
2023-01-31T11:49:41.441Z,24.85
2023-01-31T11:52:15.649Z,21.42
2023-01-31T11:54:47.924Z,17.88
2023-01-31T11:57:17.433Z,20.00
2023-01-31T11:59:45.535Z,15.18
2023-01-31T12:02:28.668Z,17.17
2023-01-31T12:04:59.195Z,26.48
2023-01-31T12:07:30.337Z,21.27
2023-01-31T12:09:58.267Z,26.52
2023-01-31T12:12:33.144Z,18.73
2023-01-31T12:15:02.829Z,20.60
2023-01-31T12:17:32.998Z,19.63
2023-01-31T12:20:28.140Z,24.40
2023-01-31T12:23:05.772Z,21.42
2023-01-31T12:25:47.718Z,17.52
2023-01-31T12:28:26.422Z,14.73
2023-01-31T12:31:06.733Z,27.55
2023-01-31T12:33:52.809Z,29.65
2023-01-31T12:36:35.254Z,20.48
2023-01-31T12:39:17.206Z,18.38
2023-01-31T12:41:58.406Z,20.75
2023-01-31T12:44:39.487Z,24.40
2023-01-31T12:47:26.312Z,20.63
2023-01-31T12:50:13.931Z,16.48
2023-01-31T12:52:52.933Z,18.13
2023-01-31T12:55:31.105Z,17.90
2023-01-31T12:58:14.795Z,18.83
2023-01-31T13:00:53.328Z,20.95
2023-01-31T13:03:45.241Z,18.98
2023-01-31T13:06:16.208Z,23.95
2023-01-31T13:09:06.870Z,14.88
2023-01-31T13:11:42.843Z,20.55
2023-01-31T13:14:16.378Z,19.70
2023-01-31T13:16:46.669Z,16.75
2023-01-31T13:19:20.157Z,16.83
2023-01-31T13:21:52.837Z,15.85
2023-01-31T13:24:27.179Z,20.52
2023-01-31T13:26:59.424Z,14.48
2023-01-31T13:29:32.927Z,25.38
2023-01-31T13:32:03.352Z,23.83
2023-01-31T13:34:38.101Z,18.92
2023-01-31T13:37:10.664Z,19.45
2023-01-31T13:39:43.065Z,15.02
2023-01-31T13:42:14.625Z,13.55
2023-01-31T13:44:43.175Z,18.45
2023-01-31T13:47:17.296Z,13.18
2023-01-31T13:49:50.717Z,16.80
2023-01-31T13:52:23.415Z,15.88
2023-01-31T13:54:57.607Z,16.13
2023-01-31T13:57:29.261Z,17.50
2023-01-31T14:00:03.841Z,18.38
2023-01-31T14:02:34.058Z,17.38
2023-01-31T14:05:09.310Z,18.73
2023-01-31T14:07:38.592Z,22.17
2023-01-31T14:10:43.047Z,15.15
2023-01-31T14:13:42.849Z,15.13
2023-01-31T14:16:40.394Z,18.25
2023-01-31T14:19:47.016Z,16.58
2023-01-31T14:22:18.026Z,16.98
2023-01-31T14:25:12.404Z,17.38
2023-01-31T14:28:00.624Z,14.70
2023-01-31T14:30:42.161Z,13.52
2023-01-31T14:33:24.160Z,10.35
2023-01-31T14:36:25.325Z,11.93
2023-01-31T14:39:20.235Z,15.10
2023-01-31T14:42:15.959Z,13.20
2023-01-31T14:45:02.462Z,16.95
2023-01-31T14:47:44.530Z,19.35
2023-01-31T14:50:30.185Z,14.88
2023-01-31T14:53:11.187Z,13.00
2023-01-31T14:55:50.174Z,12.55
2023-01-31T14:58:24.337Z,15.35
2023-01-31T15:00:56.805Z,16.70
2023-01-31T15:03:27.299Z,11.82
2023-01-31T15:05:57.519Z,19.02
2023-01-31T15:08:44.756Z,16.40
2023-01-31T15:11:42.386Z,16.13
2023-01-31T15:14:34.169Z,13.77
2023-01-31T15:17:27.299Z,13.15
2023-01-31T15:20:07.693Z,13.20
2023-01-31T15:22:41.417Z,12.60
2023-01-31T15:25:23.149Z,12.68
2023-01-31T15:27:51.678Z,18.52
2023-01-31T15:30:22.450Z,15.32
2023-01-31T15:32:57.603Z,17.85
2023-01-31T15:35:30.415Z,14.02
2023-01-31T15:38:02.771Z,13.02
2023-01-31T15:40:31.289Z,14.32
2023-01-31T15:43:18.015Z,12.88
2023-01-31T15:45:47.737Z,13.00
2023-01-31T15:48:18.970Z,20.17
2023-01-31T15:50:51.543Z,14.25
2023-01-31T15:53:22.023Z,12.10
2023-01-31T15:55:51.603Z,14.07
2023-01-31T15:58:22.085Z,14.73
2023-01-31T16:00:52.466Z,12.23
2023-01-31T16:03:24.281Z,13.95
2023-01-31T16:05:54.667Z,15.75
2023-01-31T16:08:29.223Z,15.23
2023-01-31T16:10:59.017Z,14.02
2023-01-31T16:13:28.092Z,16.45
2023-01-31T16:15:56.229Z,15.90
2023-01-31T16:18:26.719Z,12.10
2023-01-31T16:20:56.989Z,15.50
2023-01-31T16:23:28.514Z,15.32
2023-01-31T16:26:04.208Z,15.75
2023-01-31T16:28:38.850Z,13.77
2023-01-31T16:31:09.716Z,11.30
2023-01-31T16:33:41.372Z,15.40
2023-01-31T16:36:16.624Z,10.13
2023-01-31T16:38:58.430Z,13.13
2023-01-31T16:41:42.658Z,12.55
2023-01-31T16:44:18.827Z,10.65
2023-01-31T16:46:50.864Z,7.18
2023-01-31T16:49:23.923Z,11.45
2023-01-31T16:51:58.816Z,11.80
2023-01-31T16:54:31.007Z,8.60
2023-01-31T16:57:22.335Z,9.90
2023-01-31T16:59:51.838Z,8.57
2023-01-31T17:02:24.799Z,10.25
2023-01-31T17:04:56.293Z,7.07
2023-01-31T17:07:27.766Z,7.80
2023-01-31T17:09:58.040Z,8.10
2023-01-31T17:12:29.083Z,8.68
2023-01-31T17:15:03.386Z,8.32
2023-01-31T17:17:36.995Z,9.20
2023-01-31T17:20:07.474Z,7.75
2023-01-31T17:22:35.436Z,9.20
2023-01-31T17:25:03.676Z,6.88
2023-01-31T17:27:46.852Z,7.97
2023-01-31T17:30:15.957Z,7.55
2023-01-31T17:32:44.167Z,6.47
2023-01-31T17:35:19.603Z,7.85
2023-01-31T17:37:48.296Z,8.68
2023-01-31T17:40:16.571Z,8.50
2023-01-31T17:42:45.356Z,7.07
2023-01-31T17:45:15.453Z,8.20
2023-01-31T17:47:43.397Z,8.45
2023-01-31T17:50:17.864Z,8.55
2023-01-31T17:52:45.968Z,9.55
2023-01-31T17:55:14.835Z,8.23
2023-01-31T17:57:42.979Z,9.27
2023-01-31T18:00:15.361Z,10.55
2023-01-31T18:02:43.389Z,6.95
2023-01-31T18:05:12.279Z,7.50
2023-01-31T18:07:41.744Z,8.38
2023-01-31T18:10:11.480Z,8.85
2023-01-31T18:12:39.536Z,10.30
2023-01-31T18:15:08.990Z,7.20
2023-01-31T18:17:36.952Z,8.43
2023-01-31T18:20:05.661Z,7.20
2023-01-31T18:22:33.756Z,7.43
2023-01-31T18:25:03.613Z,7.60
2023-01-31T18:27:31.758Z,7.03
2023-01-31T18:29:59.705Z,9.38
2023-01-31T18:32:27.886Z,12.10
2023-01-31T18:34:56.111Z,7.53
2023-01-31T18:37:24.962Z,6.10
2023-01-31T18:39:54.422Z,7.90
2023-01-31T18:42:24.260Z,7.13
2023-01-31T18:44:52.770Z,8.60
2023-01-31T18:47:21.160Z,7.88
2023-01-31T18:49:49.373Z,6.90
2023-01-31T18:52:17.791Z,8.30
2023-01-31T18:54:48.998Z,8.95
2023-01-31T18:57:16.944Z,7.07
2023-01-31T18:59:46.196Z,7.30
2023-01-31T19:02:14.143Z,7.40
2023-01-31T19:04:42.512Z,6.47
2023-01-31T19:07:10.890Z,7.30
2023-01-31T19:09:38.796Z,6.82
2023-01-31T19:12:06.865Z,7.80
2023-01-31T19:14:34.832Z,7.25
2023-01-31T19:17:04.333Z,6.95
2023-01-31T19:19:32.308Z,6.13
2023-01-31T19:22:01.509Z,6.18
2023-01-31T19:24:29.416Z,6.65
2023-01-31T19:26:57.338Z,5.65
2023-01-31T19:29:25.341Z,6.18
2023-01-31T19:31:55.489Z,5.30
2023-01-31T19:34:25.115Z,10.15
2023-01-31T19:36:53.151Z,6.90
2023-01-31T19:39:21.194Z,4.93
2023-01-31T19:41:49.130Z,7.90
2023-01-31T19:44:17.083Z,5.65
2023-01-31T19:46:46.302Z,4.82
2023-01-31T19:49:14.234Z,4.70
2023-01-31T19:51:43.761Z,5.30
2023-01-31T19:54:15.512Z,4.97
2023-01-31T19:56:44.219Z,5.57
2023-01-31T19:59:12.603Z,5.90
2023-01-31T20:01:40.591Z,6.38
2023-01-31T20:04:08.456Z,5.78
2023-01-31T20:06:36.468Z,5.82
2023-01-31T20:09:07.407Z,5.80
2023-01-31T20:11:36.671Z,7.25
2023-01-31T20:14:06.464Z,8.82
2023-01-31T20:16:34.433Z,9.27
2023-01-31T20:19:03.722Z,6.70
2023-01-31T20:21:31.821Z,6.38
2023-01-31T20:23:59.702Z,5.88
2023-01-31T20:26:29.854Z,5.97
2023-01-31T20:28:57.885Z,8.43
2023-01-31T20:31:26.046Z,6.95
2023-01-31T20:33:54.815Z,7.93
2023-01-31T20:36:24.060Z,7.20
2023-01-31T20:38:52.061Z,6.82
2023-01-31T20:41:21.818Z,6.30
2023-01-31T20:43:51.527Z,6.82
2023-01-31T20:46:19.860Z,7.45
2023-01-31T20:48:47.906Z,8.38
2023-01-31T20:51:15.881Z,5.82
2023-01-31T20:53:43.787Z,5.85
2023-01-31T20:56:12.556Z,8.43
2023-01-31T20:58:42.237Z,6.20
2023-01-31T21:01:12.451Z,5.65
2023-01-31T21:03:40.500Z,8.73
2023-01-31T21:06:09.246Z,6.82
2023-01-31T21:08:37.580Z,6.25
2023-01-31T21:11:07.947Z,6.85
2023-01-31T21:13:36.715Z,8.43
2023-01-31T21:16:07.696Z,6.95
2023-01-31T21:18:39.160Z,6.10
2023-01-31T21:21:09.125Z,6.75
2023-01-31T21:23:38.477Z,6.68
2023-01-31T21:26:08.215Z,7.03
2023-01-31T21:28:37.179Z,7.38
2023-01-31T21:31:07.675Z,7.80
2023-01-31T21:33:37.462Z,6.50
2023-01-31T21:36:09.255Z,5.65
2023-01-31T21:38:37.481Z,7.10
2023-01-31T21:41:23.442Z,7.32
2023-01-31T21:43:51.911Z,11.07
2023-01-31T21:46:20.803Z,5.97
2023-01-31T21:48:51.370Z,7.07
2023-01-31T21:51:22.446Z,6.47
2023-01-31T21:53:51.540Z,5.15
2023-01-31T21:56:21.923Z,6.78
2023-01-31T21:58:54.022Z,5.18
2023-01-31T22:01:27.352Z,5.30
2023-01-31T22:03:57.757Z,5.82
2023-01-31T22:06:30.994Z,6.85
2023-01-31T22:09:01.823Z,6.03
2023-01-31T22:11:33.187Z,7.53
2023-01-31T22:14:03.192Z,7.80
2023-01-31T22:16:31.783Z,6.75
2023-01-31T22:19:01.801Z,5.45
2023-01-31T22:21:31.031Z,6.13
2023-01-31T22:24:00.674Z,6.13
2023-01-31T22:26:31.262Z,6.55
2023-01-31T22:29:01.075Z,6.75
2023-01-31T22:31:29.857Z,7.30
2023-01-31T22:34:00.011Z,6.90
2023-01-31T22:36:29.348Z,9.50
2023-01-31T22:38:57.283Z,7.30
2023-01-31T22:41:25.730Z,8.32
2023-01-31T22:43:54.722Z,9.13
2023-01-31T22:46:25.093Z,6.90
2023-01-31T22:48:55.246Z,8.82
2023-01-31T22:51:24.481Z,8.88
2023-01-31T22:53:54.742Z,8.73
2023-01-31T22:56:24.472Z,9.65
2023-01-31T22:58:57.073Z,7.82
2023-01-31T23:01:26.938Z,7.57
2023-01-31T23:03:57.707Z,8.93
2023-01-31T23:06:26.390Z,10.38
2023-01-31T23:08:57.548Z,10.02
2023-01-31T23:11:26.192Z,7.38
2023-01-31T23:13:54.453Z,9.35
2023-01-31T23:16:45.707Z,9.57
2023-01-31T23:19:14.334Z,8.05
2023-01-31T23:21:43.245Z,7.72
2023-01-31T23:24:14.405Z,9.77
2023-01-31T23:26:42.456Z,12.48
2023-01-31T23:29:10.677Z,8.70
2023-01-31T23:31:38.755Z,8.63
2023-01-31T23:34:07.577Z,12.55
2023-01-31T23:36:35.784Z,6.97
2023-01-31T23:39:03.896Z,8.18
2023-01-31T23:41:33.145Z,9.02
2023-01-31T23:44:01.047Z,8.35
2023-01-31T23:46:28.985Z,8.98
2023-01-31T23:48:56.944Z,9.52
2023-01-31T23:51:24.839Z,7.72
2023-01-31T23:53:52.735Z,10.60
2023-01-31T23:56:20.752Z,8.35
2023-01-31T23:58:49.989Z,8.35
